This is the latest recevied weather packets stored in our database for station/object K3BAK-13. If no packets are shown the sender has not sent any weather packets the latest 10 day(s).
| Time | Temp. | Humidity | Pressure | Rain* | Wind** | Luminosity | Snow |
|---|---|---|---|---|---|---|---|
| 1777602059 | 5° C | 86% | 1016.2 hPa | 0 mm | - | - | - |
| 1777598462 | 6.11° C | 79% | 1015.8 hPa | 0 mm | - | - | - |
| 1777598161 | 6.67° C | 79% | 1015.7 hPa | 0 mm | - | - | - |
| 1777593059 | 10° C | 71% | 1015.1 hPa | 0 mm | - | - | - |
| 1777592160 | 10° C | 69% | 1014.9 hPa | 0 mm | - | - | - |
| 1777591258 | 9.44° C | 72% | 1014.8 hPa | 0 mm | - | - | - |
| 1777590657 | 9.44° C | 71% | 1014.9 hPa | 0 mm | - | - | - |
| 1777589757 | 9.44° C | 71% | 1014.9 hPa | 0 mm | - | - | - |
| 1777589164 | 8.89° C | 73% | 1014.9 hPa | 0 mm | - | - | - |
| 1777587060 | 9.44° C | 68% | 1014.7 hPa | 0 mm | - | - | - |
| 1777586758 | 9.44° C | 66% | 1014.6 hPa | 0 mm | - | - | - |
| 1777586469 | 10° C | 66% | 1014.6 hPa | 0 mm | - | - | - |
| 1777586158 | 10° C | 66% | 1014.4 hPa | 0 mm | - | - | - |
| 1777584361 | 11.11° C | 63% | 1014.3 hPa | 0 mm | - | - | - |
| 1777583794 | 11.11° C | 68% | 1014.2 hPa | 0 mm | - | - | - |
| 1777583160 | 10° C | 70% | 1014.2 hPa | 0 mm | - | - | - |
| 1777582859 | 10° C | 67% | 1014.2 hPa | 0 mm | - | - | - |
| 1777581967 | 10° C | 72% | 1014.2 hPa | 0 mm | - | - | - |
| 1777578660 | 8.89° C | 73% | 1014.4 hPa | 0 mm | - | - | - |
| 1777571158 | 8.33° C | 76% | 1014.1 hPa | 0 mm | - | - | - |
| 1777570859 | 7.78° C | 75% | 1014.2 hPa | 0 mm | - | - | - |
| 1777569369 | 7.78° C | 77% | 1014 hPa | 0 mm | - | - | - |
| 1777569060 | 7.78° C | 79% | 1014.1 hPa | 0 mm | - | - | - |
| 1777568159 | 7.78° C | 77% | 1014.1 hPa | 0 mm | - | - | - |
| 1777567561 | 7.22° C | 79% | 1014.1 hPa | 0 mm | - | - | - |
* Rain latest hour (hover to see other rain measurements)
** Current wind speed in m/s (hover to see current wind gust speed)